createdAt,value
2018-09-25T00:00:51.730Z,5
2018-09-25T00:01:52.216Z,5.9
2018-09-25T00:02:51.943Z,4.2
2018-09-25T00:03:51.938Z,5.8
2018-09-25T00:04:52.071Z,5.2
2018-09-25T00:05:52.286Z,5.2
2018-09-25T00:06:52.244Z,5.5
2018-09-25T00:07:52.355Z,4.9
2018-09-25T00:08:53.484Z,5.9
2018-09-25T00:09:52.705Z,7.2
2018-09-25T00:11:10.600Z,5.4
2018-09-25T00:11:52.900Z,5.3
2018-09-25T00:12:52.909Z,7.1
2018-09-25T00:13:52.993Z,5.4
2018-09-25T00:14:52.978Z,5
2018-09-25T00:15:53.015Z,5.3
2018-09-25T00:16:53.102Z,5.4
2018-09-25T00:17:53.389Z,4.7
2018-09-25T00:18:53.189Z,4.6
2018-09-25T00:19:53.327Z,5.2
2018-09-25T00:20:53.511Z,4.6
2018-09-25T00:21:53.613Z,6
2018-09-25T00:22:53.621Z,5.2
2018-09-25T00:23:53.738Z,4.9
2018-09-25T00:24:54.479Z,5.5
2018-09-25T00:25:54.058Z,6.1
2018-09-25T00:27:29.673Z,4.7
2018-09-25T00:27:53.899Z,3.7
2018-09-25T00:28:54.024Z,5.4
2018-09-25T00:29:54.287Z,4.3
2018-09-25T00:30:54.165Z,4.7
2018-09-25T00:31:54.204Z,4.9
2018-09-25T00:32:54.197Z,6.5
2018-09-25T00:33:54.185Z,4.6
2018-09-25T00:34:54.396Z,4.5
2018-09-25T00:35:54.529Z,6.2
2018-09-25T00:36:54.637Z,6.7
2018-09-25T00:37:54.631Z,5.4
2018-09-25T00:38:54.841Z,4.6
2018-09-25T00:39:55.141Z,6.7
2018-09-25T00:40:54.937Z,7.9
2018-09-25T00:41:54.982Z,5.7
2018-09-25T00:42:55.182Z,4.5
2018-09-25T00:43:55.160Z,6.7
2018-09-25T00:44:55.228Z,5.5
2018-09-25T00:46:13.092Z,4.6
2018-09-25T00:46:55.282Z,4.6
2018-09-25T00:48:55.490Z,6.1
2018-09-25T00:49:55.501Z,5.3
2018-09-25T00:50:55.629Z,5.3
2018-09-25T00:53:13.508Z,4.3
2018-09-25T00:53:55.661Z,4.3
2018-09-25T00:54:56.025Z,4.9
2018-09-25T00:55:55.959Z,6.1
2018-09-25T00:56:55.890Z,6.5
2018-09-25T00:57:56.000Z,5.5
2018-09-25T00:58:56.157Z,3.9
2018-09-25T00:59:56.234Z,4.5
2018-09-25T01:01:56.395Z,4.8
2018-09-25T01:03:14.539Z,7
2018-09-25T01:03:56.375Z,4.2
2018-09-25T01:05:14.390Z,4.5
2018-09-25T01:05:56.742Z,4.5
2018-09-25T01:06:56.606Z,6.9
2018-09-25T01:07:56.572Z,7.3
2018-09-25T01:08:56.689Z,5.4
2018-09-25T01:09:56.875Z,3.1
2018-09-25T01:11:14.838Z,5.5
2018-09-25T01:11:58.089Z,7.2
2018-09-25T01:12:57.044Z,5.7
2018-09-25T01:13:57.256Z,6
2018-09-25T01:14:57.423Z,4.3
2018-09-25T01:15:57.253Z,5.7
2018-09-25T01:16:57.330Z,3.8
2018-09-25T01:18:15.457Z,6.2
2018-09-25T01:18:57.904Z,6.2
2018-09-25T01:19:57.712Z,6.5
2018-09-25T01:20:57.918Z,5
2018-09-25T01:21:57.996Z,6
2018-09-25T01:23:57.931Z,5
2018-09-25T01:24:58.049Z,5
2018-09-25T01:25:58.294Z,4.9
2018-09-25T01:27:16.392Z,4.3
2018-09-25T01:27:58.372Z,6
2018-09-25T01:28:58.474Z,3.7
2018-09-25T01:30:16.504Z,4.7
2018-09-25T01:30:58.798Z,4
2018-09-25T01:31:58.858Z,5.2
2018-09-25T01:32:58.789Z,5.2
2018-09-25T01:33:59.006Z,3.5
2018-09-25T01:34:59.062Z,5.7
2018-09-25T01:35:59.163Z,5.2
2018-09-25T01:36:59.161Z,4.1
2018-09-25T01:37:59.241Z,4.8
2018-09-25T01:39:17.079Z,6.6
2018-09-25T01:40:17.141Z,6.2
2018-09-25T01:40:59.428Z,5.4
2018-09-25T01:41:59.439Z,4.8
2018-09-25T01:42:59.489Z,3.7
2018-09-25T01:43:59.417Z,5.6
2018-09-25T01:44:59.623Z,4.2
2018-09-25T01:46:59.608Z,5.2
2018-09-25T01:48:59.785Z,4.7
2018-09-25T01:49:59.866Z,7.1
2018-09-25T01:51:17.708Z,6.4
2018-09-25T01:51:59.940Z,5.7
2018-09-25T01:52:59.921Z,4.8
2018-09-25T01:54:00.083Z,5.4
2018-09-25T01:55:00.120Z,6
2018-09-25T01:57:18.181Z,5.5
2018-09-25T01:58:18.218Z,6.3
2018-09-25T01:59:00.387Z,5.8
2018-09-25T02:00:00.534Z,5.1
2018-09-25T02:01:00.658Z,5.4
2018-09-25T02:02:00.776Z,7.4
2018-09-25T02:03:00.864Z,4.7
2018-09-25T02:04:01.027Z,6.4
2018-09-25T02:05:01.005Z,5.5
2018-09-25T02:06:01.095Z,4.2
2018-09-25T02:07:01.240Z,5.1
2018-09-25T02:08:01.462Z,5.2
2018-09-25T02:09:01.684Z,5.1
2018-09-25T02:10:01.470Z,5.1
2018-09-25T02:11:01.576Z,3.6
2018-09-25T02:12:01.818Z,5.9
2018-09-25T02:13:01.946Z,4.6
2018-09-25T02:14:01.877Z,6.3
2018-09-25T02:15:01.957Z,5
2018-09-25T02:16:02.129Z,4.2
2018-09-25T02:17:02.118Z,5.5
2018-09-25T02:18:02.236Z,4.9
2018-09-25T02:19:02.317Z,5
2018-09-25T02:20:02.484Z,7.9
2018-09-25T02:21:02.411Z,7.4
2018-09-25T02:22:02.571Z,5.2
2018-09-25T02:23:02.542Z,4.9
2018-09-25T02:24:20.594Z,6.4
2018-09-25T02:25:20.623Z,7.2
2018-09-25T02:26:02.756Z,6.8
2018-09-25T02:29:03.032Z,5
2018-09-25T02:30:03.195Z,6.5
2018-09-25T02:31:21.071Z,5.3
2018-09-25T02:32:03.349Z,6.9
2018-09-25T02:33:03.392Z,6.1
2018-09-25T02:34:03.342Z,8.3
2018-09-25T02:35:03.519Z,5
2018-09-25T02:36:03.570Z,7.4
2018-09-25T02:37:03.648Z,6.3
2018-09-25T02:38:03.640Z,5.2
2018-09-25T02:39:03.806Z,5.7
2018-09-25T02:40:21.767Z,4.8
2018-09-25T02:41:03.915Z,5.7
2018-09-25T02:42:04.043Z,5.2
2018-09-25T02:43:04.338Z,5.2
2018-09-25T02:44:04.300Z,3.2
2018-09-25T02:45:04.542Z,4.6
2018-09-25T02:46:22.384Z,5.1
2018-09-25T02:49:04.745Z,6.4
2018-09-25T02:50:04.865Z,4.1
2018-09-25T02:51:05.113Z,7.8
2018-09-25T02:52:05.084Z,4.4
2018-09-25T02:53:05.220Z,5.7
2018-09-25T02:54:05.330Z,5.2
2018-09-25T02:55:05.464Z,5.8
2018-09-25T02:56:05.729Z,4.1
2018-09-25T02:57:05.631Z,5.2
2018-09-25T02:59:05.900Z,5
2018-09-25T03:00:05.918Z,5.6
2018-09-25T03:01:23.774Z,6.5
2018-09-25T03:02:05.908Z,6.3
2018-09-25T03:03:23.975Z,5.6
2018-09-25T03:04:24.103Z,4.3
2018-09-25T03:07:21.927Z,4.6
2018-09-25T03:08:03.975Z,4.7
2018-09-25T03:09:03.980Z,3.7
2018-09-25T03:10:04.024Z,5.8
2018-09-25T03:11:04.130Z,6
2018-09-25T03:12:04.066Z,4.5
2018-09-25T03:15:59.565Z,5.1
2018-09-25T03:16:15.649Z,5.6
2018-09-25T03:17:15.576Z,4.7
2018-09-25T03:18:15.722Z,6.7
2018-09-25T03:19:15.958Z,5.9
2018-09-25T03:20:15.986Z,5.4
2018-09-25T03:21:15.933Z,6.6
2018-09-25T03:22:16.061Z,7.3
2018-09-25T03:23:34.138Z,5.3
2018-09-25T03:24:34.226Z,7.5
2018-09-25T03:28:11.372Z,5.8
2018-09-25T03:29:11.627Z,5.9
2018-09-25T03:31:51.885Z,5.1
2018-09-25T03:33:09.918Z,6.3
2018-09-25T03:33:52.152Z,5.4
2018-09-25T03:34:52.215Z,4.4
2018-09-25T03:35:52.115Z,4.8
2018-09-25T03:36:53.289Z,5.9
2018-09-25T03:37:52.232Z,7.4
2018-09-25T03:39:10.723Z,5.6
2018-09-25T03:39:52.374Z,5.3
2018-09-25T03:40:52.500Z,5.4
2018-09-25T03:41:52.733Z,5.4
2018-09-25T03:42:52.838Z,5
2018-09-25T03:44:10.735Z,4.2
2018-09-25T03:45:53.034Z,5.3
2018-09-25T03:46:53.077Z,5.9
2018-09-25T03:47:53.023Z,5.2
2018-09-25T03:48:53.217Z,5.2
2018-09-25T03:49:53.229Z,5.8
2018-09-25T03:50:53.232Z,6
2018-09-25T03:51:53.316Z,5
2018-09-25T03:53:11.416Z,5.7
2018-09-25T03:53:53.608Z,6.8
2018-09-25T03:54:53.598Z,4.6
2018-09-25T03:55:53.689Z,7.4
2018-09-25T03:57:11.950Z,5.7
2018-09-25T03:58:54.043Z,5.6
2018-09-25T03:59:54.179Z,5
2018-09-25T04:00:54.381Z,5.9
2018-09-25T04:01:54.446Z,5.8
2018-09-25T04:02:54.404Z,4.7
2018-09-25T04:03:54.535Z,5.5
2018-09-25T04:04:54.755Z,5.8
2018-09-25T04:05:54.773Z,6.1
2018-09-25T04:06:54.756Z,6.8
2018-09-25T04:07:54.986Z,6.8
2018-09-25T04:09:12.850Z,6.6
2018-09-25T04:10:12.996Z,5.7
2018-09-25T04:11:13.041Z,4.4
2018-09-25T04:11:55.276Z,6.9
2018-09-25T04:12:55.313Z,6.2
2018-09-25T04:14:55.315Z,6.4
2018-09-25T04:15:55.509Z,6.1
2018-09-25T04:16:55.559Z,7.2
2018-09-25T04:18:55.555Z,7.3
2018-09-25T04:19:55.746Z,4.5
2018-09-25T04:20:55.909Z,3.8
2018-09-25T04:21:55.724Z,7.1
2018-09-25T04:22:55.849Z,7
2018-09-25T04:23:56.087Z,6.5
2018-09-25T04:24:56.102Z,5.8
2018-09-25T04:25:56.074Z,6.1
2018-09-25T04:26:56.213Z,6.8
2018-09-25T04:27:56.403Z,6.5
2018-09-25T04:29:14.497Z,4.4
2018-09-25T04:29:56.489Z,8.3
2018-09-25T04:31:14.671Z,5.6
2018-09-25T04:31:56.743Z,3.9
2018-09-25T04:32:56.878Z,5.7
2018-09-25T04:33:57.019Z,5.3
2018-09-25T04:35:14.869Z,5
2018-09-25T04:35:57.100Z,5.6
2018-09-25T04:36:57.105Z,6.6
2018-09-25T04:37:57.045Z,6.9
2018-09-25T04:38:57.159Z,5.4
2018-09-25T04:39:57.369Z,8
2018-09-25T04:40:57.453Z,6.5
2018-09-25T04:42:57.654Z,5
2018-09-25T04:44:15.717Z,6.6
2018-09-25T04:44:57.855Z,8.4
2018-09-25T04:45:57.869Z,4.9
2018-09-25T04:46:58.003Z,6.6
2018-09-25T04:47:58.188Z,4.6
2018-09-25T04:48:58.119Z,6
2018-09-25T04:50:18.799Z,5.9
2018-09-25T04:50:58.353Z,6.3
2018-09-25T04:51:58.198Z,6.2
2018-09-25T04:52:58.211Z,4.7
2018-09-25T04:53:58.286Z,5.1
2018-09-25T04:55:16.478Z,7
2018-09-25T04:55:58.434Z,6.3
2018-09-25T04:56:58.417Z,6.8
2018-09-25T04:57:58.719Z,6.1
2018-09-25T04:58:58.769Z,6.9
2018-09-25T04:59:58.890Z,5.5
2018-09-25T05:00:58.886Z,4.7
2018-09-25T05:01:58.965Z,6.1
2018-09-25T05:02:59.124Z,5.7
2018-09-25T05:03:59.201Z,5.3
2018-09-25T05:04:59.280Z,7.3
2018-09-25T05:05:59.307Z,6.2
2018-09-25T05:06:59.426Z,6.3
2018-09-25T05:07:59.603Z,6.5
2018-09-25T05:08:59.444Z,7.8
2018-09-25T05:10:17.414Z,7.5
2018-09-25T05:10:59.694Z,6.5
2018-09-25T05:12:17.579Z,7.5
2018-09-25T05:12:59.764Z,5.6
2018-09-25T05:14:17.801Z,6
2018-09-25T05:14:59.981Z,5.4
2018-09-25T05:16:00.056Z,6.5
2018-09-25T05:17:00.144Z,7.2
2018-09-25T05:18:18.253Z,5.2
2018-09-25T05:19:00.253Z,6.7
2018-09-25T05:20:00.343Z,8
2018-09-25T05:21:00.388Z,7.2
2018-09-25T05:22:00.509Z,7.4
2018-09-25T05:23:00.739Z,6.3
2018-09-25T05:24:00.758Z,5.9
2018-09-25T05:25:00.794Z,7.6
2018-09-25T05:26:18.772Z,5.3
2018-09-25T05:27:01.099Z,7.6
2018-09-25T05:28:01.083Z,6.3
2018-09-25T05:29:19.060Z,6.9
2018-09-25T05:30:01.294Z,6.2
2018-09-25T05:31:01.540Z,8
2018-09-25T05:32:19.459Z,6.5
2018-09-25T05:33:01.429Z,8.2
2018-09-25T05:35:42.507Z,6.4
2018-09-25T05:36:16.659Z,6.8
2018-09-25T05:36:58.491Z,7
2018-09-25T05:37:59.771Z,6.4
2018-09-25T05:40:39.654Z,6.3
2018-09-25T05:40:55.714Z,6.8
2018-09-25T05:41:55.775Z,5.6
2018-09-25T05:42:55.850Z,7.3
2018-09-25T05:45:19.314Z,5.8
2018-09-25T05:45:35.263Z,5.5
2018-09-25T05:46:35.382Z,6.7
2018-09-25T05:47:35.555Z,6.6
2018-09-25T05:50:42.896Z,8.2
2018-09-25T05:50:58.826Z,7.4
2018-09-25T06:03:59.858Z,6.9
2018-09-25T06:04:33.788Z,7.2
2018-09-25T06:05:15.996Z,8.6
2018-09-25T06:06:16.127Z,8.7
2018-09-25T06:07:34.120Z,7.8
2018-09-25T06:08:16.360Z,5.5
2018-09-25T06:09:16.403Z,7.1
2018-09-25T06:10:16.407Z,7.1
2018-09-25T06:11:34.399Z,7.2
2018-09-25T06:12:34.581Z,9.4
2018-09-25T06:14:34.691Z,5.6
2018-09-25T06:15:34.588Z,7.2
2018-09-25T06:16:16.815Z,8.2
2018-09-25T06:17:17.039Z,5
2018-09-25T06:18:16.918Z,6.5
2018-09-25T06:19:17.024Z,6.1
2018-09-25T06:20:17.137Z,6.3
2018-09-25T06:21:17.379Z,7.4
2018-09-25T06:22:17.287Z,6.4
2018-09-25T06:23:17.324Z,8.1
2018-09-25T06:24:17.542Z,4.6
2018-09-25T06:25:17.531Z,5.3
2018-09-25T06:26:17.418Z,6.6
2018-09-25T06:27:17.477Z,7.6
2018-09-25T06:28:17.719Z,8.9
2018-09-25T06:30:17.710Z,5.7
2018-09-25T06:31:17.771Z,6.9
2018-09-25T06:32:17.905Z,7.5
2018-09-25T06:33:18.107Z,4.9
2018-09-25T06:34:18.025Z,6.9
2018-09-25T06:35:18.105Z,6.5
2018-09-25T06:36:36.298Z,6.4
2018-09-25T06:37:36.164Z,7.6
2018-09-25T06:38:18.290Z,6.1
2018-09-25T06:39:18.348Z,9.1
2018-09-25T06:40:18.565Z,8.1
2018-09-25T06:41:18.650Z,7.4
2018-09-25T06:42:36.435Z,6
2018-09-25T06:43:18.752Z,8.1
2018-09-25T06:44:18.780Z,5.6
2018-09-25T06:46:18.987Z,8.2
2018-09-25T06:47:18.923Z,6
2018-09-25T06:48:18.976Z,8.1
2018-09-25T06:49:19.039Z,7
2018-09-25T06:50:37.257Z,6.8
2018-09-25T06:51:19.382Z,6
2018-09-25T06:53:19.251Z,7.3
2018-09-25T06:54:19.276Z,7.9
2018-09-25T06:55:37.276Z,7.8
2018-09-25T06:56:19.436Z,6.2
2018-09-25T06:58:19.699Z,6.8
2018-09-25T06:59:19.547Z,6.8
2018-09-25T07:00:19.633Z,6.3
2018-09-25T07:01:19.871Z,8.2
2018-09-25T07:02:19.923Z,7.6
2018-09-25T07:03:19.847Z,4.6
2018-09-25T07:04:37.817Z,5.7
2018-09-25T07:05:38.004Z,6.1
2018-09-25T07:06:20.166Z,7.3
2018-09-25T07:07:38.001Z,8.3
2018-09-25T07:08:20.153Z,5.8
2018-09-25T07:09:20.289Z,7.1
2018-09-25T07:10:20.614Z,9.3
2018-09-25T07:11:20.469Z,7.7
2018-09-25T07:12:20.522Z,6.6
2018-09-25T07:13:20.613Z,6.8
2018-09-25T07:14:20.685Z,5.6
2018-09-25T07:15:20.774Z,6.9
2018-09-25T07:16:20.915Z,7.2
2018-09-25T07:17:21.061Z,5.9
2018-09-25T07:18:39.019Z,5.8
2018-09-25T07:19:21.061Z,7.2
2018-09-25T07:20:21.059Z,7.5
2018-09-25T07:21:39.163Z,7.3
2018-09-25T07:23:21.427Z,5.3
2018-09-25T07:24:21.497Z,7
2018-09-25T07:25:21.705Z,8.5
2018-09-25T07:26:21.739Z,7.4
2018-09-25T07:27:21.697Z,7.3
2018-09-25T07:28:39.699Z,6
2018-09-25T07:29:21.898Z,7.5
2018-09-25T07:30:22.055Z,6.4
2018-09-25T07:31:21.981Z,7.6
2018-09-25T07:32:22.108Z,6.1
2018-09-25T07:33:22.301Z,5.6
2018-09-25T07:34:22.371Z,7
2018-09-25T07:35:22.275Z,6.5
2018-09-25T07:36:22.536Z,6.5
2018-09-25T07:37:40.429Z,6.9
2018-09-25T07:38:22.725Z,6.8
2018-09-25T07:39:22.627Z,6.9
2018-09-25T07:40:22.957Z,7
2018-09-25T07:41:23.078Z,7.6
2018-09-25T07:42:23.158Z,6.3
2018-09-25T07:43:23.080Z,8
2018-09-25T07:44:23.296Z,8
2018-09-25T07:45:23.343Z,5.7
2018-09-25T07:47:23.399Z,6.7
2018-09-25T07:48:23.655Z,6.1
2018-09-25T07:49:23.790Z,6.2
2018-09-25T07:50:23.703Z,7.3
2018-09-25T07:51:23.851Z,5.7
2018-09-25T07:52:23.806Z,5.7
2018-09-25T07:53:24.003Z,5.8
2018-09-25T07:54:23.906Z,7.1
2018-09-25T07:55:42.047Z,5.2
2018-09-25T07:56:42.112Z,6.3
2018-09-25T07:57:24.295Z,6.6
2018-09-25T07:58:24.266Z,5.4
2018-09-25T07:59:24.400Z,5.8
2018-09-25T08:00:24.620Z,5.7
2018-09-25T08:02:42.519Z,4.8
2018-09-25T08:03:24.910Z,5.6
2018-09-25T08:04:42.872Z,7.3
2018-09-25T08:06:24.883Z,5.9
2018-09-25T08:07:25.100Z,6.7
2018-09-25T08:08:25.196Z,6.3
2018-09-25T08:09:25.173Z,6
2018-09-25T08:10:25.256Z,7.4
2018-09-25T08:11:25.315Z,7.3
2018-09-25T08:12:25.693Z,7.3
2018-09-25T08:13:43.687Z,8.8
2018-09-25T08:14:25.507Z,5.8
2018-09-25T08:15:43.630Z,4.9
2018-09-25T08:16:26.855Z,5.7
2018-09-25T08:18:25.836Z,9.4
2018-09-25T08:19:43.869Z,5.9
2018-09-25T08:20:26.396Z,6.1
2018-09-25T08:22:44.166Z,6.4
2018-09-25T08:23:25.486Z,7.3
2018-09-25T08:24:26.502Z,5.5
2018-09-25T08:25:26.720Z,6.4
2018-09-25T08:26:26.628Z,5.9
2018-09-25T08:27:26.764Z,5.7
2018-09-25T08:28:26.921Z,9.1
2018-09-25T08:29:26.922Z,5.9
2018-09-25T08:30:26.797Z,5.1
2018-09-25T08:31:26.918Z,7.4
2018-09-25T08:32:27.081Z,6.4
2018-09-25T08:34:27.042Z,4.7
2018-09-25T08:35:27.206Z,4.5
2018-09-25T08:37:27.128Z,5.8
2018-09-25T08:38:45.433Z,6.1
2018-09-25T08:39:27.616Z,6.7
2018-09-25T08:40:27.528Z,6.8
2018-09-25T08:41:27.489Z,8.1
2018-09-25T08:42:27.648Z,6.1
2018-09-25T08:43:27.800Z,7.6
2018-09-25T08:44:45.659Z,6.6
2018-09-25T08:45:27.896Z,6.3
2018-09-25T08:46:28.153Z,8.2
2018-09-25T08:47:28.304Z,7.2
2018-09-25T08:48:28.418Z,7.2
2018-09-25T08:49:28.263Z,5.5
2018-09-25T08:50:28.436Z,4.9
2018-09-25T08:51:28.575Z,6.9
2018-09-25T08:52:28.468Z,7.1
2018-09-25T08:53:28.674Z,4.8
2018-09-25T08:55:28.770Z,5.3
2018-09-25T08:56:28.731Z,8
2018-09-25T08:57:29.000Z,5.6
2018-09-25T08:58:47.210Z,7.3
2018-09-25T08:59:29.165Z,6.4
2018-09-25T09:00:29.113Z,5.4
2018-09-25T09:01:29.257Z,7.7
2018-09-25T09:02:47.388Z,6.5
2018-09-25T09:03:29.763Z,6.5
2018-09-25T09:04:29.606Z,6
2018-09-25T09:05:29.624Z,7.5
2018-09-25T09:06:47.583Z,6.3
2018-09-25T09:07:29.932Z,5.8
2018-09-25T09:08:29.887Z,7.3
2018-09-25T09:09:29.852Z,5.7
2018-09-25T09:10:30.035Z,5
2018-09-25T09:11:30.031Z,4.1
2018-09-25T09:12:29.975Z,6.7
2018-09-25T09:13:30.169Z,6.6
2018-09-25T09:14:30.401Z,7.2
2018-09-25T09:15:30.223Z,5.5
2018-09-25T09:16:48.109Z,7.1
2018-09-25T09:17:30.349Z,7.7
2018-09-25T09:18:30.432Z,7.9
2018-09-25T09:19:30.442Z,7.2
2018-09-25T09:20:30.517Z,7.7
2018-09-25T09:21:30.781Z,6.6
2018-09-25T09:22:48.646Z,5
2018-09-25T09:23:30.782Z,5
2018-09-25T09:24:30.920Z,5.5
2018-09-25T09:25:31.114Z,6.6
2018-09-25T09:26:31.220Z,6.2
2018-09-25T09:27:31.404Z,5.8
2018-09-25T09:28:31.218Z,5.4
2018-09-25T09:29:49.404Z,4.9
2018-09-25T09:30:49.234Z,6
2018-09-25T09:31:49.255Z,5
2018-09-25T09:32:31.503Z,6.6
2018-09-25T09:33:49.464Z,5.6
2018-09-25T09:34:31.571Z,5.6
2018-09-25T09:35:31.657Z,5
2018-09-25T09:36:31.690Z,5
2018-09-25T09:37:31.700Z,5.4
2018-09-25T09:38:31.649Z,5.8
2018-09-25T09:39:49.721Z,4.9
2018-09-25T09:40:31.987Z,5.7
2018-09-25T09:41:32.259Z,4.9
2018-09-25T09:42:32.040Z,4.9
2018-09-25T09:43:32.211Z,7.9
2018-09-25T09:44:32.299Z,4.5
2018-09-25T09:45:32.482Z,6.8
2018-09-25T09:46:33.351Z,5.6
2018-09-25T09:47:32.388Z,5.5
2018-09-25T09:50:12.954Z,4.8
2018-09-25T09:50:46.774Z,4.7
2018-09-25T09:51:29.017Z,7.1
2018-09-25T09:52:29.134Z,6.2
2018-09-25T09:53:29.215Z,6.8
2018-09-25T09:54:29.178Z,5
2018-09-25T09:55:29.387Z,4
2018-09-25T09:56:29.487Z,4.6
2018-09-25T10:18:30.778Z,4.4
2018-09-25T10:19:04.895Z,4.6
2018-09-25T10:19:46.959Z,4.4
2018-09-25T10:21:04.855Z,4.5
2018-09-25T10:21:47.013Z,5.4
2018-09-25T10:22:47.101Z,6.2
2018-09-25T10:23:47.162Z,3.3
2018-09-25T10:24:47.125Z,4.3
2018-09-25T10:25:47.350Z,3.8
2018-09-25T10:26:47.491Z,4.2
2018-09-25T10:27:47.645Z,4.4
2018-09-25T10:28:47.609Z,4
2018-09-25T10:29:47.776Z,6.4
2018-09-25T10:30:47.812Z,4.4
2018-09-25T10:31:47.789Z,4.4
2018-09-25T10:32:47.998Z,5.7
2018-09-25T10:33:47.971Z,6.8
2018-09-25T10:34:48.247Z,4.2
2018-09-25T10:35:48.264Z,4.7
2018-09-25T10:37:06.129Z,3.8
2018-09-25T10:37:49.392Z,3.4
2018-09-25T10:38:48.524Z,4.1
2018-09-25T10:39:48.496Z,3.5
2018-09-25T10:40:48.677Z,4.5
2018-09-25T10:43:06.767Z,4
2018-09-25T10:44:06.811Z,3.2
2018-09-25T10:45:06.826Z,4.7
2018-09-25T10:47:49.261Z,4.6
2018-09-25T10:48:49.224Z,3.5
2018-09-25T10:49:49.342Z,6.2
2018-09-25T10:50:49.267Z,3.9
2018-09-25T10:51:49.250Z,5.5
2018-09-25T10:52:49.470Z,5.5
2018-09-25T10:53:49.553Z,4.6
2018-09-25T10:54:49.702Z,3
2018-09-25T10:55:49.585Z,4.4
2018-09-25T10:56:49.714Z,3.7
2018-09-25T10:57:49.817Z,5.1
2018-09-25T10:58:49.897Z,4.1
2018-09-25T10:59:49.928Z,7.5
2018-09-25T11:00:50.016Z,4.2
2018-09-25T11:01:50.080Z,4.5
2018-09-25T11:02:50.133Z,3.7
2018-09-25T11:05:50.276Z,5
2018-09-25T11:06:50.239Z,5.7
2018-09-25T11:07:50.417Z,3.7
2018-09-25T11:08:50.438Z,3.2
2018-09-25T11:09:50.547Z,4.2
2018-09-25T11:10:50.504Z,4.3
2018-09-25T11:12:08.676Z,6.2
2018-09-25T11:12:50.789Z,4.2
2018-09-25T11:13:51.148Z,4.9
2018-09-25T11:15:08.947Z,4.7
2018-09-25T11:16:08.969Z,4.5
2018-09-25T11:16:51.143Z,3.7
2018-09-25T11:19:49.522Z,4.8
2018-09-25T11:20:23.396Z,4.8
2018-09-25T11:21:05.611Z,4.1
2018-09-25T11:47:49.702Z,6.8
2018-09-25T11:49:05.936Z,233.5
2018-09-25T11:50:05.923Z,226.3
2018-09-25T11:51:05.987Z,243.5
2018-09-25T11:52:06.123Z,139.19999
2018-09-25T11:53:06.135Z,79.199997
2018-09-25T11:54:06.088Z,81.800003
2018-09-25T11:55:06.225Z,59.299999
2018-09-25T11:56:06.724Z,51.099998
2018-09-25T11:57:06.600Z,41.099998
2018-09-25T11:58:06.597Z,25.200001
2018-09-25T11:59:06.539Z,27.9
2018-09-25T12:00:24.872Z,22.9
2018-09-25T12:01:06.954Z,12.7
2018-09-25T12:02:06.927Z,13.4
2018-09-25T12:03:07.070Z,9.3
2018-09-25T12:04:07.311Z,9.6
2018-09-25T12:05:07.357Z,7.3
2018-09-25T12:06:07.312Z,8.7
2018-09-25T12:07:07.477Z,4.2
2018-09-25T12:08:07.690Z,4
2018-09-25T12:09:07.648Z,3.7
2018-09-25T12:10:25.503Z,4.4
2018-09-25T12:11:07.724Z,3.5
2018-09-25T12:12:07.907Z,2.6
2018-09-25T12:13:07.689Z,3.5
2018-09-25T12:14:07.817Z,4.7
2018-09-25T12:15:08.092Z,3.6
2018-09-25T12:16:08.219Z,4.1
2018-09-25T12:17:08.317Z,4.8
2018-09-25T12:18:08.320Z,4.6
2018-09-25T12:19:26.793Z,3.4
2018-09-25T12:21:08.460Z,3.5
2018-09-25T12:22:08.706Z,3.8
2018-09-25T12:23:08.817Z,5.2
2018-09-25T12:24:08.877Z,1.9
2018-09-25T12:25:08.932Z,3.5
2018-09-25T12:26:08.934Z,2.6
2018-09-25T12:27:09.037Z,2.9
2018-09-25T12:28:09.235Z,2.8
2018-09-25T12:29:26.934Z,3.6
2018-09-25T12:30:09.105Z,3.5
2018-09-25T12:31:09.318Z,3
2018-09-25T12:33:09.254Z,3.3
2018-09-25T12:34:09.284Z,2.7
2018-09-25T12:36:09.332Z,5.6
2018-09-25T12:37:09.444Z,3.1
2018-09-25T12:38:27.364Z,4.9
2018-09-25T12:39:09.602Z,4
2018-09-25T12:40:09.835Z,5.1
2018-09-25T12:41:09.618Z,3.5
2018-09-25T12:42:10.013Z,3.8
2018-09-25T12:43:09.916Z,2.6
2018-09-25T12:44:27.826Z,5.4
2018-09-25T12:45:10.028Z,4.4
2018-09-25T12:46:10.215Z,2.7
2018-09-25T12:47:10.166Z,4.2
2018-09-25T12:48:10.197Z,3.7
2018-09-25T12:49:10.176Z,3.5
2018-09-25T12:50:10.248Z,4.3
2018-09-25T12:51:29.117Z,4.9
2018-09-25T12:52:10.216Z,2.8
2018-09-25T12:53:10.532Z,4
2018-09-25T12:54:10.622Z,2.5
2018-09-25T12:56:28.517Z,4.5
2018-09-25T12:57:10.831Z,2.2
2018-09-25T12:58:10.954Z,3.5
2018-09-25T12:59:11.143Z,4.4
2018-09-25T13:00:11.069Z,4.3
2018-09-25T13:01:29.235Z,2.6
2018-09-25T13:02:29.306Z,4.5
2018-09-25T13:03:11.525Z,6.1
2018-09-25T13:04:11.583Z,3.3
2018-09-25T13:05:11.615Z,4.2
2018-09-25T13:06:11.686Z,3.2
2018-09-25T13:07:29.580Z,3.6
2018-09-25T13:08:11.805Z,3.9
2018-09-25T13:09:11.681Z,3.5
2018-09-25T13:10:11.944Z,3.8
2018-09-25T13:11:11.805Z,3.9
2018-09-25T13:12:11.855Z,3
2018-09-25T13:13:29.771Z,2.5
2018-09-25T13:14:11.907Z,3.1
2018-09-25T13:15:12.210Z,4.2
2018-09-25T13:16:12.384Z,3.3
2018-09-25T13:17:12.308Z,3.4
2018-09-25T13:18:30.257Z,3.2
2018-09-25T13:19:12.456Z,3.3
2018-09-25T13:20:12.568Z,2.8
2018-09-25T13:21:30.477Z,3.7
2018-09-25T13:22:12.617Z,3.2
2018-09-25T13:23:12.744Z,2.8
2018-09-25T13:24:31.027Z,7.7
2018-09-25T13:25:13.195Z,1.9
2018-09-25T13:26:12.852Z,4.6
2018-09-25T13:27:13.078Z,3.3
2018-09-25T13:28:13.088Z,2.4
2018-09-25T13:29:13.041Z,2.1
2018-09-25T13:30:13.148Z,2.3
2018-09-25T13:31:13.292Z,2.4
2018-09-25T13:32:13.380Z,2.7
2018-09-25T13:33:31.463Z,2.2
2018-09-25T13:34:31.367Z,2.3
2018-09-25T13:35:13.598Z,3.8
2018-09-25T13:36:31.778Z,4.9
2018-09-25T13:37:13.657Z,3.2
2018-09-25T13:38:13.755Z,2.7
2018-09-25T13:39:13.814Z,2.1
2018-09-25T13:40:13.874Z,2.7
2018-09-25T13:41:31.748Z,3.5
2018-09-25T13:43:14.131Z,4.5
2018-09-25T13:44:14.234Z,3.3
2018-09-25T13:45:31.988Z,2
2018-09-25T13:46:14.150Z,2.4
2018-09-25T13:47:14.275Z,2.4
2018-09-25T13:48:14.444Z,2.2
2018-09-25T13:49:14.473Z,2.3
2018-09-25T13:50:32.383Z,3.3
2018-09-25T13:52:14.898Z,2.7
2018-09-25T13:53:32.631Z,2.3
2018-09-25T13:54:14.824Z,3.2
2018-09-25T13:55:14.991Z,1.9
2018-09-25T13:56:14.973Z,3.6
2018-09-25T13:57:32.779Z,3.2
2018-09-25T13:58:15.046Z,2.4
2018-09-25T13:59:15.209Z,4.5
2018-09-25T14:00:15.096Z,4.2
2018-09-25T14:01:15.212Z,3.3
2018-09-25T14:02:15.307Z,1.7
2018-09-25T14:03:15.516Z,2.4
2018-09-25T14:04:15.348Z,2
2018-09-25T14:05:33.341Z,4.2
2018-09-25T14:06:33.388Z,4.1
2018-09-25T14:07:15.559Z,3
2018-09-25T14:08:15.605Z,2.6
2018-09-25T14:09:33.726Z,2.6
2018-09-25T14:10:15.806Z,3.8
2018-09-25T14:11:15.823Z,4.2
2018-09-25T14:12:15.997Z,3.2
2018-09-25T14:13:16.016Z,4.2
2018-09-25T14:14:33.762Z,3.6
2018-09-25T14:15:15.958Z,3.8
2018-09-25T14:16:34.047Z,4
2018-09-25T14:17:16.136Z,7.5
2018-09-25T14:21:49.822Z,4.2
2018-09-25T14:22:49.879Z,3.5
2018-09-25T14:23:50.095Z,2.9
2018-09-25T14:24:50.075Z,2.9
2018-09-25T14:25:32.388Z,3.6
2018-09-25T14:49:53.593Z,3.4
2018-09-25T14:51:53.566Z,3.2
2018-09-25T14:53:12.526Z,3.2
2018-09-25T14:54:11.856Z,3.8
2018-09-25T14:54:53.727Z,4.4
2018-09-25T14:55:53.787Z,5.7
2018-09-25T14:56:53.780Z,2.1
2018-09-25T14:57:54.088Z,3.9
2018-09-25T14:58:54.285Z,3.7
2018-09-25T14:59:54.174Z,4.7
2018-09-25T15:00:54.276Z,4.2
2018-09-25T15:02:12.209Z,2.5
2018-09-25T15:03:13.309Z,4.9
2018-09-25T15:03:54.674Z,3.4
2018-09-25T15:05:12.653Z,3.1
2018-09-25T15:05:54.714Z,4.6
2018-09-25T15:07:12.810Z,2.9
2018-09-25T15:07:55.124Z,3.4
2018-09-25T15:09:12.742Z,3.3
2018-09-25T15:09:55.128Z,6.2
2018-09-25T15:11:12.982Z,2.9
2018-09-25T15:11:55.560Z,3.5
2018-09-25T15:12:55.299Z,3
2018-09-25T15:14:13.073Z,3.8
2018-09-25T15:14:55.397Z,2.9
2018-09-25T15:15:55.310Z,5.6
2018-09-25T15:16:56.482Z,4.8
2018-09-25T15:17:55.341Z,3.1
2018-09-25T15:19:55.540Z,3.3
2018-09-25T15:20:55.687Z,1.6
2018-09-25T15:22:13.964Z,3.5
2018-09-25T15:23:13.682Z,2.6
2018-09-25T15:23:55.990Z,2.7
2018-09-25T15:24:56.856Z,3.4
2018-09-25T15:25:56.013Z,3.6
2018-09-25T15:26:56.112Z,2.3
2018-09-25T15:27:56.290Z,3.4
2018-09-25T15:28:56.238Z,5.1
2018-09-25T15:29:56.281Z,2.9
2018-09-25T15:30:56.908Z,2.6
2018-09-25T15:31:56.727Z,5.8
2018-09-25T15:32:56.773Z,2.6
2018-09-25T15:34:56.813Z,2.5
2018-09-25T15:36:14.871Z,6.4
2018-09-25T15:36:57.098Z,2.7
2018-09-25T15:38:16.006Z,5.8
2018-09-25T15:38:57.047Z,8.6
2018-09-25T15:39:57.235Z,2.8
2018-09-25T15:40:58.265Z,3.3
2018-09-25T15:43:57.469Z,2.6
2018-09-25T15:44:57.338Z,2.1
2018-09-25T15:45:57.370Z,3.8
2018-09-25T15:51:29.791Z,2.7
2018-09-25T15:52:03.852Z,2.6
2018-09-25T15:55:37.307Z,4.7
2018-09-25T16:19:24.922Z,3.2
2018-09-25T16:19:41.068Z,3.2
2018-09-25T16:20:41.020Z,3.4
2018-09-25T16:21:58.950Z,2.2
2018-09-25T16:22:59.134Z,2.6
2018-09-25T16:23:41.251Z,2.1
2018-09-25T16:24:59.167Z,2.3
2018-09-25T16:25:59.295Z,1.9
2018-09-25T16:26:59.494Z,3.2
2018-09-25T16:27:59.575Z,3.4
2018-09-25T16:29:41.853Z,3.6
2018-09-25T16:30:41.817Z,3.1
2018-09-25T16:32:59.778Z,3
2018-09-25T16:33:59.900Z,4.9
2018-09-25T16:37:00.179Z,2.7
2018-09-25T16:38:00.400Z,3.4
2018-09-25T16:38:42.472Z,4.3
2018-09-25T16:39:42.569Z,3.8
2018-09-25T16:40:42.505Z,2.5
2018-09-25T16:41:43.651Z,2.8
2018-09-25T16:42:42.774Z,2.4
2018-09-25T16:44:00.731Z,3.9
2018-09-25T16:44:42.940Z,4.7
2018-09-25T16:48:01.184Z,5.3
2018-09-25T16:49:01.072Z,2.9
2018-09-25T16:50:01.181Z,4
2018-09-25T16:51:01.381Z,3.6
2018-09-25T16:53:43.602Z,3.1